createdAt,value
2018-02-27T00:02:05.586Z,-3.25
2018-02-27T00:04:33.006Z,-3.24
2018-02-27T00:07:00.426Z,-3.32
2018-02-27T00:09:27.846Z,-3.25
2018-02-27T00:11:55.270Z,-3.23
2018-02-27T00:14:22.700Z,-3.23
2018-02-27T00:16:50.117Z,-3.28
2018-02-27T00:19:17.548Z,-3.24
2018-02-27T00:21:44.961Z,-3.29
2018-02-27T00:24:12.380Z,-3.28
2018-02-27T00:26:39.806Z,-3.32
2018-02-27T00:29:07.286Z,-3.30
2018-02-27T00:31:34.663Z,-3.39
2018-02-27T00:34:02.078Z,-3.45
2018-02-27T00:36:29.500Z,-3.48
2018-02-27T00:38:56.915Z,-3.48
2018-02-27T00:41:24.339Z,-3.55
2018-02-27T00:43:51.757Z,-3.60
2018-02-27T00:46:19.182Z,-3.64
2018-02-27T00:48:46.599Z,-3.75
2018-02-27T00:51:14.031Z,-3.72
2018-02-27T00:53:41.451Z,-3.72
2018-02-27T00:56:08.867Z,-3.78
2018-02-27T00:58:36.281Z,-3.75
2018-02-27T01:01:03.709Z,-3.73
2018-02-27T01:03:31.135Z,-3.78
2018-02-27T01:05:58.554Z,-3.85
2018-02-27T01:08:25.974Z,-3.80
2018-02-27T01:10:53.417Z,-3.88
2018-02-27T01:13:20.832Z,-3.93
2018-02-27T01:15:48.265Z,-3.92
2018-02-27T01:18:15.686Z,-3.95
2018-02-27T01:20:43.121Z,-3.92
2018-02-27T01:23:10.546Z,-4.01
2018-02-27T01:25:37.966Z,-4.07
2018-02-27T01:28:05.385Z,-4.05
2018-02-27T01:30:32.812Z,-4.14
2018-02-27T01:33:00.221Z,-4.19
2018-02-27T01:35:27.646Z,-4.18
2018-02-27T01:37:55.057Z,-4.23
2018-02-27T01:40:22.474Z,-4.25
2018-02-27T01:42:49.899Z,-4.26
2018-02-27T01:45:17.314Z,-4.20
2018-02-27T01:47:44.733Z,-4.23
2018-02-27T01:50:12.150Z,-4.31
2018-02-27T01:52:39.635Z,-4.38
2018-02-27T01:55:07.050Z,-4.39
2018-02-27T01:57:34.478Z,-4.45
2018-02-27T02:00:01.890Z,-4.43
2018-02-27T02:02:29.310Z,-4.50
2018-02-27T02:04:56.726Z,-4.48
2018-02-27T02:07:24.150Z,-4.58
2018-02-27T02:09:51.566Z,-4.61
2018-02-27T02:12:18.998Z,-4.63
2018-02-27T02:14:46.426Z,-4.66
2018-02-27T02:17:13.858Z,-4.65
2018-02-27T02:19:41.274Z,-4.68
2018-02-27T02:22:08.721Z,-4.73
2018-02-27T02:24:36.134Z,-4.75
2018-02-27T02:27:03.578Z,-4.68
2018-02-27T02:29:30.991Z,-4.78
2018-02-27T02:31:58.414Z,-4.78
2018-02-27T02:34:25.832Z,-4.79
2018-02-27T02:36:53.253Z,-4.79
2018-02-27T02:39:20.727Z,-4.83
2018-02-27T02:41:59.995Z,-4.82
2018-02-27T02:44:27.411Z,-4.82
2018-02-27T02:46:54.834Z,-4.86
2018-02-27T02:49:22.250Z,-4.79
2018-02-27T02:51:49.678Z,-4.84
2018-02-27T02:54:17.099Z,-4.88
2018-02-27T02:56:44.522Z,-4.91
2018-02-27T02:59:11.946Z,-4.89
2018-02-27T03:01:39.365Z,-4.98
2018-02-27T03:04:06.783Z,-5.03
2018-02-27T03:06:34.211Z,-5.03
2018-02-27T03:09:01.635Z,-5.10
2018-02-27T03:11:29.057Z,-5.10
2018-02-27T03:13:56.482Z,-5.06
2018-02-27T03:16:23.909Z,-5.13
2018-02-27T03:18:51.334Z,-5.13
2018-02-27T03:21:18.758Z,-5.09
2018-02-27T03:23:46.177Z,-5.20
2018-02-27T03:26:13.600Z,-5.17
2018-02-27T03:28:41.018Z,-5.23
2018-02-27T03:31:08.440Z,-5.31
2018-02-27T03:33:35.873Z,-5.33
2018-02-27T03:36:03.289Z,-5.30
2018-02-27T03:38:30.714Z,-5.33
2018-02-27T03:40:58.138Z,-5.35
2018-02-27T03:43:25.565Z,-5.34
2018-02-27T03:45:52.978Z,-5.37
2018-02-27T03:48:20.418Z,-5.38
2018-02-27T03:50:47.826Z,-5.43
2018-02-27T03:53:15.253Z,-5.44
2018-02-27T03:55:42.681Z,-5.49
2018-02-27T03:58:10.107Z,-5.50
2018-02-27T04:00:37.526Z,-5.38
2018-02-27T04:03:04.950Z,-5.31
2018-02-27T04:05:32.347Z,-5.31
2018-02-27T04:07:59.751Z,-5.33
2018-02-27T04:10:27.151Z,-5.37
2018-02-27T04:12:54.567Z,-5.44
2018-02-27T04:15:21.975Z,-5.48
2018-02-27T04:17:49.374Z,-5.65
2018-02-27T04:20:16.774Z,-5.65
2018-02-27T04:22:44.191Z,-5.66
2018-02-27T04:25:11.603Z,-5.66
2018-02-27T04:27:39.011Z,-5.57
2018-02-27T04:30:06.410Z,-5.51
2018-02-27T04:32:33.818Z,-5.58
2018-02-27T04:35:01.222Z,-5.62
2018-02-27T04:37:28.657Z,-5.62
2018-02-27T04:39:56.079Z,-5.71
2018-02-27T04:42:23.502Z,-5.70
2018-02-27T04:44:50.922Z,-5.77
2018-02-27T04:47:18.785Z,-5.83
2018-02-27T04:49:46.234Z,-5.78
2018-02-27T04:52:13.645Z,-5.82
2018-02-27T04:54:41.094Z,-5.92
2018-02-27T04:57:08.510Z,-5.85
2018-02-27T04:59:35.936Z,-5.76
2018-02-27T05:02:03.357Z,-5.87
2018-02-27T05:04:30.790Z,-5.82
2018-02-27T05:06:58.211Z,-5.96
2018-02-27T05:09:25.658Z,-5.97
2018-02-27T05:11:53.059Z,-5.99
2018-02-27T05:14:20.478Z,-6.04
2018-02-27T05:16:47.898Z,-6.06
2018-02-27T05:19:15.318Z,-6.16
2018-02-27T05:21:42.741Z,-6.12
2018-02-27T05:24:10.162Z,-6.16
2018-02-27T05:26:37.579Z,-6.20
2018-02-27T05:29:05.001Z,-6.26
2018-02-27T05:31:32.424Z,-6.29
2018-02-27T05:33:59.841Z,-6.30
2018-02-27T05:36:27.258Z,-6.28
2018-02-27T05:38:54.690Z,-6.34
2018-02-27T05:41:22.101Z,-6.29
2018-02-27T05:43:49.521Z,-6.35
2018-02-27T05:46:16.938Z,-6.35
2018-02-27T05:48:44.382Z,-6.35
2018-02-27T05:51:11.791Z,-6.42
2018-02-27T05:53:39.230Z,-6.47
2018-02-27T05:56:06.675Z,-6.51
2018-02-27T05:58:34.090Z,-6.47
2018-02-27T06:01:01.841Z,-6.50
2018-02-27T06:03:29.303Z,-6.45
2018-02-27T06:05:56.733Z,-6.38
2018-02-27T06:08:24.150Z,-6.49
2018-02-27T06:10:51.570Z,-6.43
2018-02-27T06:13:19.104Z,-6.43
2018-02-27T06:15:46.534Z,-6.50
2018-02-27T06:18:14.013Z,-6.48
2018-02-27T06:20:41.440Z,-6.53
2018-02-27T06:23:08.911Z,-6.55
2018-02-27T06:25:36.338Z,-6.53
2018-02-27T06:28:03.761Z,-6.53
2018-02-27T06:30:31.214Z,-6.53
2018-02-27T06:32:58.627Z,-6.46
2018-02-27T06:35:26.070Z,-6.49
2018-02-27T06:37:53.483Z,-6.44
2018-02-27T06:40:20.921Z,-6.51
2018-02-27T06:42:48.332Z,-6.46
2018-02-27T06:45:15.758Z,-6.44
2018-02-27T06:47:43.189Z,-6.53
2018-02-27T06:50:10.606Z,-6.52
2018-02-27T06:52:38.022Z,-6.45
2018-02-27T06:55:05.449Z,-6.48
2018-02-27T06:57:32.870Z,-6.48
2018-02-27T07:00:00.291Z,-6.51
2018-02-27T07:02:27.709Z,-6.51
2018-02-27T07:04:55.134Z,-6.45
2018-02-27T07:07:22.570Z,-6.48
2018-02-27T07:09:49.994Z,-6.46
2018-02-27T07:12:17.414Z,-6.44
2018-02-27T07:14:44.846Z,-6.37
2018-02-27T07:17:12.265Z,-6.45
2018-02-27T07:19:39.686Z,-6.37
2018-02-27T07:22:07.110Z,-6.29
2018-02-27T07:24:34.526Z,-6.24
2018-02-27T07:27:01.948Z,-6.12
2018-02-27T07:29:29.359Z,-5.96
2018-02-27T07:31:56.795Z,-6.02
2018-02-27T07:34:24.210Z,-6.03
2018-02-27T07:36:51.643Z,-5.96
2018-02-27T07:39:19.062Z,-5.83
2018-02-27T07:41:46.483Z,-5.85
2018-02-27T07:44:13.950Z,-5.93
2018-02-27T07:46:41.378Z,-5.91
2018-02-27T07:49:08.793Z,-5.82
2018-02-27T07:51:36.224Z,-5.81
2018-02-27T07:54:03.650Z,-5.79
2018-02-27T07:56:31.070Z,-5.77
2018-02-27T07:58:58.490Z,-5.71
2018-02-27T08:01:25.910Z,-5.69
2018-02-27T08:03:53.326Z,-5.59
2018-02-27T08:06:20.752Z,-5.54
2018-02-27T08:08:48.169Z,-5.44
2018-02-27T08:11:15.615Z,-5.54
2018-02-27T08:13:43.035Z,-5.40
2018-02-27T08:16:10.505Z,-5.31
2018-02-27T08:18:37.883Z,-5.17
2018-02-27T08:21:05.306Z,-5.26
2018-02-27T08:23:32.718Z,-5.20
2018-02-27T08:26:00.141Z,-5.22
2018-02-27T08:28:27.566Z,-5.14
2018-02-27T08:30:54.990Z,-5.05
2018-02-27T08:33:22.406Z,-4.99
2018-02-27T08:35:49.830Z,-5.06
2018-02-27T08:38:17.249Z,-5.01
2018-02-27T08:40:44.670Z,-4.91
2018-02-27T08:43:12.101Z,-4.96
2018-02-27T08:45:39.530Z,-4.91
2018-02-27T08:48:06.966Z,-4.91
2018-02-27T08:50:34.385Z,-4.64
2018-02-27T08:53:01.818Z,-4.46
2018-02-27T08:55:29.232Z,-4.29
2018-02-27T08:57:56.662Z,-4.35
2018-02-27T09:00:24.077Z,-4.24
2018-02-27T09:02:51.502Z,-4.00
2018-02-27T09:05:18.914Z,-3.95
2018-02-27T09:07:46.330Z,-3.91
2018-02-27T09:10:13.748Z,-3.84
2018-02-27T09:12:41.170Z,-3.78
2018-02-27T09:15:08.590Z,-3.76
2018-02-27T09:17:36.015Z,-3.55
2018-02-27T09:20:03.424Z,-3.38
2018-02-27T09:22:30.889Z,-3.05
2018-02-27T09:24:58.306Z,-2.83
2018-02-27T09:27:25.751Z,-2.84
2018-02-27T09:29:53.166Z,-2.71
2018-02-27T09:32:20.614Z,-2.46
2018-02-27T09:34:48.031Z,-2.40
2018-02-27T09:37:15.446Z,-2.26
2018-02-27T09:39:42.868Z,-2.01
2018-02-27T09:42:10.285Z,-2.11
2018-02-27T09:44:37.706Z,-2.15
2018-02-27T09:47:05.134Z,-1.96
2018-02-27T09:49:32.582Z,-2.08
2018-02-27T09:51:59.994Z,-1.62
2018-02-27T09:54:27.410Z,-1.45
2018-02-27T09:56:54.865Z,-1.30
2018-02-27T09:59:22.281Z,-1.30
2018-02-27T10:01:49.699Z,-0.98
2018-02-27T10:04:17.102Z,-0.73
2018-02-27T10:06:44.534Z,-0.54
2018-02-27T10:09:11.942Z,-0.12
2018-02-27T10:11:39.386Z,-0.43
2018-02-27T10:14:06.812Z,-0.43
2018-02-27T10:16:34.222Z,-0.29
2018-02-27T10:19:01.647Z,-0.03
2018-02-27T10:21:29.055Z,-0.06
2018-02-27T10:23:56.474Z,-0.07
2018-02-27T10:26:23.879Z,0.12
2018-02-27T10:28:51.302Z,0.54
2018-02-27T10:31:18.714Z,0.27
2018-02-27T10:33:46.129Z,0.40
2018-02-27T10:36:13.542Z,0.82
2018-02-27T10:38:40.958Z,1.50
2018-02-27T10:41:08.366Z,1.12
2018-02-27T10:43:35.788Z,1.03
2018-02-27T10:46:03.190Z,0.78
2018-02-27T10:48:30.607Z,1.23
2018-02-27T10:50:58.014Z,1.51
2018-02-27T10:53:25.432Z,1.02
2018-02-27T10:55:52.849Z,1.00
2018-02-27T10:58:20.262Z,1.13
2018-02-27T11:00:50.514Z,0.75
2018-02-27T11:03:17.934Z,1.00
2018-02-27T11:05:45.348Z,1.03
2018-02-27T11:08:12.767Z,1.28
2018-02-27T11:10:40.173Z,1.71
2018-02-27T11:13:07.594Z,1.60
2018-02-27T11:15:35.006Z,2.21
2018-02-27T11:18:02.466Z,2.83
2018-02-27T11:20:29.878Z,2.58
2018-02-27T11:22:57.295Z,2.19
2018-02-27T11:25:24.711Z,1.93
2018-02-27T11:27:52.122Z,2.23
2018-02-27T11:30:19.540Z,2.24
2018-02-27T11:32:46.958Z,2.08
2018-02-27T11:35:14.369Z,2.18
2018-02-27T11:37:41.781Z,2.04
2018-02-27T11:40:09.190Z,2.01
2018-02-27T11:42:36.610Z,1.53
2018-02-27T11:45:04.018Z,1.28
2018-02-27T11:47:31.426Z,1.52
2018-02-27T11:49:58.841Z,1.67
2018-02-27T11:52:26.249Z,1.80
2018-02-27T11:54:53.666Z,1.74
2018-02-27T11:57:21.079Z,1.69
2018-02-27T11:59:48.496Z,2.25
2018-02-27T12:02:15.900Z,2.32
2018-02-27T12:04:43.315Z,1.97
2018-02-27T12:07:10.718Z,2.34
2018-02-27T12:09:38.142Z,2.99
2018-02-27T12:12:05.550Z,2.70
2018-02-27T12:14:32.973Z,2.39
2018-02-27T12:17:00.386Z,2.75
2018-02-27T12:19:27.802Z,2.79
2018-02-27T12:21:55.214Z,2.84
2018-02-27T12:24:22.637Z,2.48
2018-02-27T12:26:50.050Z,2.07
2018-02-27T12:29:17.516Z,2.64
2018-02-27T12:31:44.883Z,2.65
2018-02-27T12:34:12.297Z,3.12
2018-02-27T12:36:39.714Z,3.33
2018-02-27T12:39:07.136Z,3.53
2018-02-27T12:41:34.554Z,3.82
2018-02-27T12:44:01.974Z,3.01
2018-02-27T12:46:29.382Z,2.19
2018-02-27T12:48:56.805Z,2.35
2018-02-27T12:51:24.210Z,2.91
2018-02-27T12:53:51.642Z,2.64
2018-02-27T12:56:19.045Z,3.00
2018-02-27T12:58:46.467Z,2.93
2018-02-27T13:01:13.881Z,3.54
2018-02-27T13:03:41.319Z,2.96
2018-02-27T13:06:08.714Z,2.41
2018-02-27T13:08:36.117Z,2.20
2018-02-27T13:11:03.526Z,2.49
2018-02-27T13:13:30.934Z,2.61
2018-02-27T13:15:58.389Z,2.77
2018-02-27T13:18:25.790Z,2.71
2018-02-27T13:20:53.206Z,2.98
2018-02-27T13:23:20.618Z,2.66
2018-02-27T13:25:48.042Z,2.59
2018-02-27T13:28:15.458Z,2.32
2018-02-27T13:30:42.881Z,1.95
2018-02-27T13:33:11.226Z,2.03
2018-02-27T13:35:38.667Z,2.48
2018-02-27T13:38:06.071Z,2.22
2018-02-27T13:40:33.503Z,2.25
2018-02-27T13:43:00.914Z,2.03
2018-02-27T13:45:28.334Z,1.87
2018-02-27T13:47:55.755Z,1.22
2018-02-27T13:50:23.171Z,1.21
2018-02-27T13:52:50.586Z,1.26
2018-02-27T13:55:17.999Z,1.01
2018-02-27T13:57:45.418Z,1.00
2018-02-27T14:00:12.834Z,1.14
2018-02-27T14:02:40.259Z,1.39
2018-02-27T14:05:07.669Z,0.93
2018-02-27T14:07:35.470Z,1.03
2018-02-27T14:10:02.886Z,1.28
2018-02-27T14:12:30.294Z,0.99
2018-02-27T14:14:57.706Z,0.84
2018-02-27T14:17:25.117Z,0.65
2018-02-27T14:19:53.518Z,0.47
2018-02-27T14:22:20.922Z,0.72
2018-02-27T14:24:48.370Z,0.77
2018-02-27T14:27:15.777Z,0.84
2018-02-27T14:29:43.187Z,0.83
2018-02-27T14:32:10.594Z,0.99
2018-02-27T14:34:38.015Z,0.71
2018-02-27T14:37:05.458Z,0.76
2018-02-27T14:39:38.635Z,0.56
2018-02-27T14:42:06.059Z,0.70
2018-02-27T14:44:43.974Z,0.62
2018-02-27T14:47:11.391Z,0.64
2018-02-27T14:49:38.819Z,0.66
2018-02-27T14:52:06.275Z,0.71
2018-02-27T14:54:33.691Z,0.60
2018-02-27T14:57:01.116Z,0.58
2018-02-27T14:59:28.526Z,0.32
2018-02-27T15:01:55.960Z,0.58
2018-02-27T15:04:23.368Z,0.57
2018-02-27T15:06:50.783Z,0.32
2018-02-27T15:09:18.200Z,0.38
2018-02-27T15:11:45.618Z,0.15
2018-02-27T15:14:13.041Z,0.36
2018-02-27T15:16:40.486Z,0.28
2018-02-27T15:19:07.919Z,0.36
2018-02-27T15:21:36.129Z,0.26
2018-02-27T15:24:03.587Z,0.27
2018-02-27T15:26:30.998Z,-0.03
2018-02-27T15:28:58.410Z,0.11
2018-02-27T15:31:25.873Z,0.11
2018-02-27T15:33:53.302Z,0.20
2018-02-27T15:36:21.755Z,0.04
2018-02-27T15:38:49.176Z,0.09
2018-02-27T15:41:16.582Z,0.06
2018-02-27T15:43:43.982Z,0.11
2018-02-27T15:46:11.463Z,-0.12
2018-02-27T15:48:38.875Z,-0.13
2018-02-27T15:51:06.365Z,-0.07
2018-02-27T15:53:33.770Z,-0.10
2018-02-27T15:56:01.254Z,-0.14
2018-02-27T15:58:28.613Z,-0.24
2018-02-27T16:00:56.043Z,-0.39
2018-02-27T16:03:23.461Z,-0.30
2018-02-27T16:05:50.862Z,-0.33
2018-02-27T16:08:18.285Z,-0.20
2018-02-27T16:10:45.710Z,-0.24
2018-02-27T16:13:13.268Z,-0.39
2018-02-27T16:15:40.706Z,-0.44
2018-02-27T16:18:08.954Z,-0.46
2018-02-27T16:20:36.463Z,-0.62
2018-02-27T16:23:03.882Z,-0.54
2018-02-27T16:25:31.298Z,-0.56
2018-02-27T16:27:58.719Z,-0.67
2018-02-27T16:30:26.125Z,-0.68
2018-02-27T16:32:53.542Z,-0.78
2018-02-27T16:35:20.946Z,-0.90
2018-02-27T16:37:48.357Z,-0.90
2018-02-27T16:40:15.770Z,-0.82
2018-02-27T16:42:43.190Z,-0.80
2018-02-27T16:45:10.599Z,-0.87
2018-02-27T16:47:38.042Z,-0.94
2018-02-27T16:50:06.434Z,-1.02
2018-02-27T16:52:33.851Z,-1.02
2018-02-27T16:55:01.262Z,-1.04
2018-02-27T16:57:28.675Z,-1.06
2018-02-27T16:59:56.083Z,-1.22
2018-02-27T17:02:23.494Z,-1.23
2018-02-27T17:04:50.914Z,-1.34
2018-02-27T17:07:18.367Z,-1.46
2018-02-27T17:09:45.772Z,-1.48
2018-02-27T17:12:13.228Z,-1.52
2018-02-27T17:14:40.607Z,-1.50
2018-02-27T17:17:08.058Z,-1.57
2018-02-27T17:19:35.476Z,-1.61
2018-02-27T17:22:02.895Z,-1.63
2018-02-27T17:24:31.409Z,-1.64
2018-02-27T17:27:03.343Z,-1.73
2018-02-27T17:29:30.826Z,-1.76
2018-02-27T17:31:58.244Z,-1.85
2018-02-27T17:34:25.650Z,-1.89
2018-02-27T17:36:53.073Z,-1.89
2018-02-27T17:39:20.530Z,-1.90
2018-02-27T17:41:47.944Z,-1.87
2018-02-27T17:44:15.362Z,-1.89
2018-02-27T17:46:42.844Z,-1.93
2018-02-27T17:49:10.771Z,-1.91
2018-02-27T17:51:38.219Z,-1.93
2018-02-27T17:54:05.672Z,-1.99
2018-02-27T17:56:33.087Z,-2.05
2018-02-27T17:59:00.501Z,-2.03
2018-02-27T18:01:27.906Z,-2.04
2018-02-27T18:03:55.321Z,-2.10
2018-02-27T18:06:22.726Z,-2.16
2018-02-27T18:08:50.141Z,-2.15
2018-02-27T18:11:17.550Z,-2.18
2018-02-27T18:13:44.966Z,-2.20
2018-02-27T18:16:12.384Z,-2.24
2018-02-27T18:18:39.838Z,-2.27
2018-02-27T18:21:07.254Z,-2.30
2018-02-27T18:23:34.684Z,-2.37
2018-02-27T18:26:02.096Z,-2.42
2018-02-27T18:28:29.671Z,-2.31
2018-02-27T18:30:57.098Z,-2.38
2018-02-27T18:33:24.498Z,-2.38
2018-02-27T18:35:51.912Z,-2.47
2018-02-27T18:38:19.322Z,-2.48
2018-02-27T18:40:46.745Z,-2.46
2018-02-27T18:43:14.153Z,-2.50
2018-02-27T18:45:41.558Z,-2.52
2018-02-27T18:48:08.973Z,-2.58
2018-02-27T18:50:36.476Z,-2.61
2018-02-27T18:53:03.885Z,-2.62
2018-02-27T18:55:31.298Z,-2.65
2018-02-27T18:57:58.725Z,-2.73
2018-02-27T19:00:26.154Z,-2.74
2018-02-27T19:02:53.553Z,-2.74
2018-02-27T19:05:20.973Z,-2.75
2018-02-27T19:07:48.386Z,-2.75
2018-02-27T19:10:15.793Z,-2.79
2018-02-27T19:12:43.213Z,-2.80
2018-02-27T19:15:10.647Z,-2.80
2018-02-27T19:17:38.062Z,-2.77
2018-02-27T19:20:05.490Z,-2.78
2018-02-27T19:22:32.917Z,-2.84
2018-02-27T19:25:00.334Z,-2.87
2018-02-27T19:27:27.762Z,-2.88
2018-02-27T19:29:55.191Z,-2.96
2018-02-27T19:32:22.655Z,-2.97
2018-02-27T19:34:50.074Z,-3.02
2018-02-27T19:37:17.524Z,-3.02
2018-02-27T19:39:44.937Z,-3.08
2018-02-27T19:42:12.357Z,-3.06
2018-02-27T19:44:39.775Z,-3.10
2018-02-27T19:47:07.256Z,-3.17
2018-02-27T19:49:34.694Z,-3.19
2018-02-27T19:52:03.137Z,-3.17
2018-02-27T19:54:30.623Z,-3.17
2018-02-27T19:56:58.046Z,-3.18
2018-02-27T19:59:25.504Z,-3.16
2018-02-27T20:01:52.910Z,-3.22
2018-02-27T20:04:20.335Z,-3.24
2018-02-27T20:06:47.786Z,-3.28
2018-02-27T20:09:15.207Z,-3.37
2018-02-27T20:11:42.635Z,-3.36
2018-02-27T20:17:03.809Z,-3.43
2018-02-27T20:19:31.246Z,-3.43
2018-02-27T20:21:58.614Z,-3.49
2018-02-27T20:24:26.062Z,-3.49
2018-02-27T20:26:53.475Z,-3.48
2018-02-27T20:29:20.906Z,-3.51
2018-02-27T20:31:48.318Z,-3.54
2018-02-27T20:34:15.770Z,-3.55
2018-02-27T20:36:43.190Z,-3.57
2018-02-27T20:39:15.990Z,-3.54
2018-02-27T20:41:43.418Z,-3.59
2018-02-27T20:44:10.849Z,-3.57
2018-02-27T20:46:38.265Z,-3.62
2018-02-27T20:49:05.682Z,-3.64
2018-02-27T20:51:33.107Z,-3.61
2018-02-27T20:54:00.521Z,-3.68
2018-02-27T20:56:27.962Z,-3.72
2018-02-27T20:58:55.377Z,-3.68
2018-02-27T21:01:22.797Z,-3.69
2018-02-27T21:03:50.229Z,-3.80
2018-02-27T21:06:17.643Z,-3.86
2018-02-27T21:08:45.065Z,-3.82
2018-02-27T21:11:12.497Z,-3.85
2018-02-27T21:13:39.926Z,-3.97
2018-02-27T21:16:07.337Z,-3.98
2018-02-27T21:18:34.767Z,-3.96
2018-02-27T21:21:02.258Z,-3.95
2018-02-27T21:23:29.678Z,-3.99
2018-02-27T21:25:57.102Z,-4.00
2018-02-27T21:28:24.533Z,-4.06
2018-02-27T21:30:51.964Z,-4.04
2018-02-27T21:33:19.378Z,-3.97
2018-02-27T21:35:46.798Z,-3.97
2018-02-27T21:38:14.245Z,-3.97
2018-02-27T21:40:41.678Z,-3.89
2018-02-27T21:43:09.098Z,-3.87
2018-02-27T21:45:36.514Z,-3.92
2018-02-27T21:48:03.963Z,-3.91
2018-02-27T21:50:31.367Z,-3.92
2018-02-27T21:52:58.795Z,-3.97
2018-02-27T21:55:26.244Z,-3.91
2018-02-27T21:57:53.638Z,-4.00
2018-02-27T22:00:21.085Z,-3.90
2018-02-27T22:02:48.510Z,-3.89
2018-02-27T22:05:15.933Z,-3.86
2018-02-27T22:07:43.354Z,-3.85
2018-02-27T22:10:10.774Z,-3.94
2018-02-27T22:12:38.207Z,-3.98
2018-02-27T22:15:05.622Z,-4.03
2018-02-27T22:17:33.063Z,-4.04
2018-02-27T22:20:00.474Z,-4.03
2018-02-27T22:22:27.887Z,-4.07
2018-02-27T22:24:55.306Z,-4.15
2018-02-27T22:27:22.718Z,-4.20
2018-02-27T22:29:50.145Z,-4.20
2018-02-27T22:32:17.562Z,-4.22
2018-02-27T22:34:45.014Z,-4.18
2018-02-27T22:37:12.430Z,-4.23
2018-02-27T22:39:39.850Z,-4.25
2018-02-27T22:42:07.327Z,-4.21
2018-02-27T22:44:34.734Z,-4.19
2018-02-27T22:47:02.163Z,-4.24
2018-02-27T22:49:29.638Z,-4.21
2018-02-27T22:51:57.066Z,-4.31
2018-02-27T22:54:24.498Z,-4.38
2018-02-27T22:56:51.937Z,-4.40
2018-02-27T22:59:19.353Z,-4.45
2018-02-27T23:01:46.798Z,-4.48
2018-02-27T23:04:14.213Z,-4.47
2018-02-27T23:06:41.630Z,-4.46
2018-02-27T23:09:09.086Z,-4.49
2018-02-27T23:11:36.494Z,-4.54
2018-02-27T23:14:03.917Z,-4.53
2018-02-27T23:16:31.340Z,-4.53
2018-02-27T23:18:58.757Z,-4.52
2018-02-27T23:21:26.181Z,-4.60
2018-02-27T23:23:54.046Z,-4.57
2018-02-27T23:26:26.378Z,-4.57
2018-02-27T23:28:54.118Z,-4.61
2018-02-27T23:31:21.613Z,-4.63
2018-02-27T23:33:59.242Z,-4.72
2018-02-27T23:36:26.676Z,-4.77
2018-02-27T23:38:54.089Z,-4.78
2018-02-27T23:41:21.506Z,-4.79
2018-02-27T23:43:48.930Z,-4.82
2018-02-27T23:46:16.348Z,-4.80
2018-02-27T23:48:43.766Z,-4.85
2018-02-27T23:51:11.182Z,-4.78
2018-02-27T23:53:38.621Z,-4.80
2018-02-27T23:56:06.038Z,-4.87
2018-02-27T23:58:33.463Z,-4.85
